Terminal Aerodrome Forecast
Issued by NWS

Home | Current Version | Previous Version | Text Only | Print | Product List | Glossary On
Versions: 1 2 3 4 5 6 7 8 9 10 11 12 13 14
396
FTUS46 KPDT 230535
TAFBDN
TAF
KBDN 230535Z 2306/2406 17007KT P6SM BKN050 BKN090
     FM231400 VRB06KT 4SM -SHSN BKN012 OVC030
     FM232000 34007KT P6SM VCSH BKN040 BKN090
     FM240400 VRB06KT P6SM SCT040 BKN100=

USA.gov is the U.S. government's official web portal to all federal, state and local government web resources and services.